createdAt,value
2018-06-07T00:00:06.373Z,13.80
2018-06-07T00:02:35.541Z,14.07
2018-06-07T00:05:04.710Z,16.57
2018-06-07T00:07:33.842Z,14.17
2018-06-07T00:10:03.034Z,12.63
2018-06-07T00:12:32.195Z,16.47
2018-06-07T00:15:01.304Z,14.60
2018-06-07T00:17:30.500Z,16.93
2018-06-07T00:19:59.657Z,13.37
2018-06-07T00:22:28.827Z,14.17
2018-06-07T00:24:57.957Z,14.53
2018-06-07T00:27:27.177Z,17.03
2018-06-07T00:29:56.279Z,15.10
2018-06-07T00:32:25.369Z,13.43
2018-06-07T00:34:54.485Z,18.63
2018-06-07T00:37:23.641Z,14.60
2018-06-07T00:39:52.786Z,14.43
2018-06-07T00:42:21.922Z,16.43
2018-06-07T00:44:51.109Z,17.00
2018-06-07T00:47:20.253Z,14.17
2018-06-07T00:49:49.425Z,14.03
2018-06-07T00:52:18.517Z,14.93
2018-06-07T00:54:47.673Z,15.70
2018-06-07T00:57:16.770Z,14.77
2018-06-07T00:59:45.869Z,15.83
2018-06-07T01:02:15.033Z,14.33
2018-06-07T01:04:44.164Z,15.00
2018-06-07T01:07:13.276Z,16.30
2018-06-07T01:09:42.374Z,17.27
2018-06-07T01:12:12.703Z,15.03
2018-06-07T01:14:41.818Z,15.10
2018-06-07T01:17:10.982Z,15.30
2018-06-07T01:19:40.078Z,16.07
2018-06-07T01:22:09.277Z,15.17
2018-06-07T01:24:38.428Z,14.20
2018-06-07T01:27:07.593Z,15.17
2018-06-07T01:29:47.877Z,16.03
2018-06-07T01:33:34.014Z,17.03
2018-06-07T01:36:03.476Z,15.37
2018-06-07T01:38:43.930Z,16.00
2018-06-07T01:41:13.044Z,15.43
2018-06-07T01:43:42.133Z,16.70
2018-06-07T01:46:11.267Z,16.27
2018-06-07T01:48:40.380Z,14.97
2018-06-07T01:51:09.558Z,14.90
2018-06-07T01:53:38.671Z,18.67
2018-06-07T01:56:07.803Z,16.43
2018-06-07T01:58:36.894Z,16.77
2018-06-07T02:01:06.022Z,15.20
2018-06-07T02:03:35.132Z,18.60
2018-06-07T02:06:04.261Z,19.80
2018-06-07T02:08:33.390Z,15.60
2018-06-07T02:11:02.540Z,18.23
2018-06-07T02:13:31.678Z,16.43
2018-06-07T02:16:00.864Z,16.73
2018-06-07T02:18:29.963Z,17.07
2018-06-07T02:20:59.087Z,16.67
2018-06-07T02:23:28.216Z,18.30
2018-06-07T02:25:57.422Z,19.20
2018-06-07T02:28:43.572Z,17.00
2018-06-07T02:31:15.494Z,18.00
2018-06-07T02:33:44.576Z,16.07
2018-06-07T02:36:13.748Z,15.67
2018-06-07T02:38:42.894Z,18.60
2018-06-07T02:41:12.007Z,16.30
2018-06-07T02:43:41.080Z,16.70
2018-06-07T02:46:10.194Z,16.33
2018-06-07T02:48:39.366Z,20.03
2018-06-07T02:51:08.509Z,18.37
2018-06-07T02:53:37.653Z,19.77
2018-06-07T02:56:06.753Z,19.43
2018-06-07T02:58:35.899Z,17.10
2018-06-07T03:01:05.042Z,16.83
2018-06-07T03:03:34.159Z,17.90
2018-06-07T03:06:03.622Z,18.17
2018-06-07T03:08:32.698Z,18.97
2018-06-07T03:11:01.922Z,18.77
2018-06-07T03:13:31.063Z,18.77
2018-06-07T03:16:00.253Z,19.47
2018-06-07T03:18:29.390Z,18.40
2018-06-07T03:20:58.486Z,19.33
2018-06-07T03:23:27.692Z,18.83
2018-06-07T03:25:56.802Z,18.60
2018-06-07T03:28:25.860Z,21.57
2018-06-07T03:30:55.034Z,18.73
2018-06-07T03:33:24.142Z,19.60
2018-06-07T03:35:53.325Z,18.80
2018-06-07T03:38:22.424Z,17.50
2018-06-07T03:40:51.609Z,17.50
2018-06-07T03:43:20.765Z,16.37
2018-06-07T03:45:49.922Z,17.80
2018-06-07T03:48:19.056Z,14.07
2018-06-07T03:50:48.201Z,16.47
2018-06-07T03:53:17.342Z,12.40
2018-06-07T03:55:46.479Z,12.63
2018-06-07T03:58:15.644Z,11.60
2018-06-07T04:00:44.747Z,13.70
2018-06-07T04:03:13.882Z,11.87
2018-06-07T04:05:58.019Z,10.60
2018-06-07T04:08:30.052Z,10.83
2018-06-07T04:10:59.152Z,10.17
2018-06-07T04:13:28.289Z,10.90
2018-06-07T04:15:57.436Z,12.33
2018-06-07T04:18:26.509Z,10.13
2018-06-07T04:20:55.661Z,9.20
2018-06-07T04:23:24.746Z,9.37
2018-06-07T04:25:53.933Z,9.13
2018-06-07T04:28:23.082Z,8.60
2018-06-07T04:30:52.619Z,12.17
2018-06-07T04:33:21.775Z,9.20
2018-06-07T04:35:50.885Z,8.87
2018-06-07T04:38:20.046Z,8.73
2018-06-07T04:40:49.220Z,9.57
2018-06-07T04:43:19.459Z,8.53
2018-06-07T04:45:48.615Z,8.87
2018-06-07T04:48:18.797Z,8.73
2018-06-07T04:50:47.904Z,9.93
2018-06-07T04:53:18.199Z,9.20
2018-06-07T04:55:48.270Z,9.23
2018-06-07T04:58:17.584Z,10.20
2018-06-07T05:00:46.748Z,8.07
2018-06-07T05:03:15.933Z,9.57
2018-06-07T05:05:45.043Z,10.03
2018-06-07T05:08:14.197Z,10.63
2018-06-07T05:10:43.364Z,9.87
2018-06-07T05:13:12.479Z,9.13
2018-06-07T05:15:41.620Z,13.70
2018-06-07T05:18:10.783Z,11.70
2018-06-07T05:20:40.503Z,11.67
2018-06-07T05:23:16.046Z,9.60
2018-06-07T05:25:45.162Z,9.10
2018-06-07T05:28:14.282Z,8.00
2018-06-07T05:30:43.429Z,9.33
2018-06-07T05:33:12.612Z,10.27
2018-06-07T05:35:42.070Z,8.80
2018-06-07T05:38:11.189Z,8.30
2018-06-07T05:40:40.683Z,10.20
2018-06-07T05:43:09.843Z,12.57
2018-06-07T05:45:38.954Z,7.63
2018-06-07T05:48:08.174Z,10.33
2018-06-07T05:50:37.292Z,10.57
2018-06-07T05:53:06.397Z,9.20
2018-06-07T05:55:35.475Z,9.27
2018-06-07T05:58:04.743Z,8.00
2018-06-07T06:00:33.851Z,10.53
2018-06-07T06:03:03.075Z,9.33
2018-06-07T06:05:32.177Z,9.47
2018-06-07T06:08:01.265Z,8.47
2018-06-07T06:10:30.419Z,9.13
2018-06-07T06:12:59.633Z,9.93
2018-06-07T06:15:28.800Z,9.00
2018-06-07T06:17:58.266Z,9.20
2018-06-07T06:20:27.598Z,9.90
2018-06-07T06:22:56.686Z,8.13
2018-06-07T06:25:25.911Z,11.27
2018-06-07T06:27:55.079Z,10.37
2018-06-07T06:30:24.176Z,11.40
2018-06-07T06:32:53.449Z,7.93
2018-06-07T06:35:22.606Z,11.37
2018-06-07T06:38:55.805Z,10.87
2018-06-07T06:41:24.970Z,10.50
2018-06-07T06:43:54.159Z,13.27
2018-06-07T06:46:23.297Z,10.20
2018-06-07T06:48:52.430Z,10.53
2018-06-07T06:51:21.592Z,9.20
2018-06-07T06:53:50.741Z,11.33
2018-06-07T06:56:20.053Z,13.63
2018-06-07T06:58:49.206Z,13.23
2018-06-07T07:01:18.386Z,11.30
2018-06-07T07:03:47.595Z,16.73
2018-06-07T07:06:16.854Z,15.80
2018-06-07T07:08:46.436Z,14.47
2018-06-07T07:11:15.612Z,17.70
2018-06-07T07:13:44.756Z,13.00
2018-06-07T07:16:13.832Z,11.97
2018-06-07T07:18:42.999Z,12.13
2018-06-07T07:21:12.265Z,14.67
2018-06-07T07:23:41.408Z,15.33
2018-06-07T07:26:10.546Z,13.00
2018-06-07T07:28:40.476Z,17.37
2018-06-07T07:31:09.603Z,16.73
2018-06-07T07:33:38.703Z,18.20
2018-06-07T07:36:07.818Z,14.27
2018-06-07T07:38:36.950Z,15.57
2018-06-07T07:41:06.057Z,16.87
2018-06-07T07:43:35.248Z,19.23
2018-06-07T07:46:04.388Z,22.47
2018-06-07T07:48:33.512Z,14.57
2018-06-07T07:51:02.676Z,16.13
2018-06-07T07:53:31.810Z,16.13
2018-06-07T07:56:00.965Z,13.43
2018-06-07T07:58:30.163Z,14.63
2018-06-07T08:00:59.379Z,16.07
2018-06-07T08:03:28.560Z,16.57
2018-06-07T08:05:57.652Z,21.70
2018-06-07T08:08:26.858Z,15.97
2018-06-07T08:10:55.947Z,21.97
2018-06-07T08:13:25.150Z,17.00
2018-06-07T08:15:54.271Z,17.07
2018-06-07T08:18:23.486Z,16.03
2018-06-07T08:20:52.632Z,15.80
2018-06-07T08:23:21.780Z,16.70
2018-06-07T08:25:50.963Z,17.20
2018-06-07T08:28:20.657Z,16.57
2018-06-07T08:30:49.781Z,18.60
2018-06-07T08:33:18.918Z,18.90
2018-06-07T08:35:48.121Z,21.00
2018-06-07T08:38:17.277Z,15.80
2018-06-07T08:40:46.402Z,17.97
2018-06-07T08:43:15.626Z,17.70
2018-06-07T08:45:44.710Z,16.50
2018-06-07T08:48:13.839Z,21.63
2018-06-07T08:50:43.909Z,16.30
2018-06-07T08:53:13.021Z,20.87
2018-06-07T08:55:42.245Z,15.73
2018-06-07T08:58:11.382Z,15.23
2018-06-07T09:00:40.580Z,16.27
2018-06-07T09:03:09.707Z,17.33
2018-06-07T09:05:39.007Z,17.57
2018-06-07T09:08:08.172Z,18.03
2018-06-07T09:10:37.335Z,17.87
2018-06-07T09:13:06.461Z,16.10
2018-06-07T09:15:35.694Z,17.67
2018-06-07T09:18:06.031Z,19.53
2018-06-07T09:20:35.288Z,19.47
2018-06-07T09:23:04.375Z,20.80
2018-06-07T09:25:33.530Z,22.13
2018-06-07T09:28:02.624Z,17.87
2018-06-07T09:30:31.783Z,18.37
2018-06-07T09:33:01.022Z,17.83
2018-06-07T09:35:30.165Z,15.13
2018-06-07T09:37:59.280Z,16.10
2018-06-07T09:40:28.425Z,18.30
2018-06-07T09:42:57.555Z,20.70
2018-06-07T09:45:26.689Z,20.90
2018-06-07T09:47:55.828Z,16.70
2018-06-07T09:50:24.974Z,15.83
2018-06-07T09:52:54.093Z,19.45
2018-06-07T09:55:23.197Z,20.10
2018-06-07T09:57:52.398Z,17.73
2018-06-07T10:00:26.600Z,18.37
2018-06-07T10:02:55.805Z,19.62
2018-06-07T10:05:24.943Z,17.73
2018-06-07T10:07:54.172Z,22.20
2018-06-07T10:10:23.279Z,15.60
2018-06-07T10:12:52.461Z,17.20
2018-06-07T10:15:21.590Z,17.82
2018-06-07T10:17:50.854Z,17.87
2018-06-07T10:20:19.924Z,17.20
2018-06-07T10:22:49.076Z,20.27
2018-06-07T10:25:18.198Z,18.85
2018-06-07T10:27:47.295Z,17.15
2018-06-07T10:30:16.384Z,17.17
2018-06-07T10:32:45.551Z,16.32
2018-06-07T10:35:14.700Z,17.15
2018-06-07T10:37:43.932Z,18.00
2018-06-07T10:40:13.068Z,18.70
2018-06-07T10:42:42.635Z,18.73
2018-06-07T10:45:11.715Z,21.52
2018-06-07T10:47:40.948Z,18.37
2018-06-07T10:50:10.088Z,19.02
2018-06-07T10:52:39.263Z,19.60
2018-06-07T10:55:08.368Z,18.85
2018-06-07T10:57:37.593Z,21.30
2018-06-07T11:00:06.836Z,20.52
2018-06-07T11:02:35.961Z,20.32
2018-06-07T11:05:05.148Z,18.40
2018-06-07T11:07:34.274Z,22.10
2018-06-07T11:10:04.620Z,18.15
2018-06-07T11:12:33.717Z,20.25
2018-06-07T11:15:03.016Z,19.75
2018-06-07T11:17:32.109Z,17.80
2018-06-07T11:20:01.213Z,18.77
2018-06-07T11:22:30.340Z,25.57
2018-06-07T11:24:59.569Z,23.07
2018-06-07T11:27:28.745Z,20.92
2018-06-07T11:29:57.886Z,19.95
2018-06-07T11:32:27.023Z,21.33
2018-06-07T11:34:56.128Z,23.62
2018-06-07T11:37:25.270Z,18.67
2018-06-07T11:39:54.353Z,18.15
2018-06-07T11:42:23.480Z,22.07
2018-06-07T11:44:52.592Z,17.42
2018-06-07T11:47:21.723Z,22.42
2018-06-07T11:49:50.954Z,19.90
2018-06-07T11:52:20.036Z,24.35
2018-06-07T11:54:49.248Z,24.25
2018-06-07T11:57:18.390Z,19.87
2018-06-07T11:59:47.512Z,22.10
2018-06-07T12:02:16.634Z,24.50
2018-06-07T12:04:45.870Z,20.43
2018-06-07T12:07:14.975Z,20.50
2018-06-07T12:09:44.148Z,27.50
2018-06-07T12:12:13.334Z,23.15
2018-06-07T12:14:42.467Z,23.70
2018-06-07T12:17:11.634Z,21.35
2018-06-07T12:19:40.765Z,23.90
2018-06-07T12:22:09.913Z,17.00
2018-06-07T12:24:39.119Z,23.38
2018-06-07T12:27:08.232Z,23.25
2018-06-07T12:29:37.398Z,20.68
2018-06-07T12:32:06.588Z,20.97
2018-06-07T12:34:35.685Z,19.20
2018-06-07T12:37:04.827Z,19.92
2018-06-07T12:39:33.959Z,23.55
2018-06-07T12:42:03.087Z,24.43
2018-06-07T12:44:32.463Z,22.60
2018-06-07T12:47:01.666Z,32.85
2018-06-07T12:49:30.860Z,22.37
2018-06-07T12:51:59.979Z,26.50
2018-06-07T12:54:29.182Z,24.70
2018-06-07T12:56:58.382Z,20.95
2018-06-07T12:59:27.500Z,24.43
2018-06-07T13:01:56.670Z,22.40
2018-06-07T13:04:25.816Z,26.12
2018-06-07T13:06:54.961Z,21.55
2018-06-07T13:09:24.113Z,20.92
2018-06-07T13:11:53.223Z,24.40
2018-06-07T13:14:23.372Z,21.93
2018-06-07T13:16:52.583Z,21.70
2018-06-07T13:19:21.768Z,20.50
2018-06-07T13:21:51.550Z,20.43
2018-06-07T13:24:21.234Z,20.35
2018-06-07T13:26:50.819Z,22.60
2018-06-07T13:29:19.912Z,18.70
2018-06-07T13:31:49.029Z,20.60
2018-06-07T13:34:18.158Z,19.87
2018-06-07T13:36:47.280Z,22.93
2018-06-07T13:39:16.417Z,20.70
2018-06-07T13:41:45.591Z,15.23
2018-06-07T13:44:14.760Z,15.05
2018-06-07T13:46:43.887Z,17.42
2018-06-07T13:49:13.033Z,18.05
2018-06-07T13:51:42.153Z,19.55
2018-06-07T13:54:11.542Z,22.40
2018-06-07T13:56:40.848Z,18.37
2018-06-07T13:59:09.992Z,18.12
2018-06-07T14:01:39.154Z,17.85
2018-06-07T14:04:08.297Z,19.75
2018-06-07T14:06:37.404Z,18.05
2018-06-07T14:09:07.934Z,17.85
2018-06-07T14:11:37.076Z,18.35
2018-06-07T14:14:06.235Z,18.37
2018-06-07T14:16:35.355Z,15.30
2018-06-07T14:19:04.546Z,15.50
2018-06-07T14:21:34.437Z,16.90
2018-06-07T14:24:03.512Z,21.97
2018-06-07T14:26:32.673Z,16.00
2018-06-07T14:29:01.777Z,16.07
2018-06-07T14:31:30.952Z,16.67
2018-06-07T14:34:00.105Z,17.42
2018-06-07T14:36:29.278Z,17.67
2018-06-07T14:38:58.384Z,21.85
2018-06-07T14:41:27.567Z,20.95
2018-06-07T14:43:56.685Z,19.27
2018-06-07T14:46:25.826Z,18.87
2018-06-07T14:48:54.928Z,17.30
2018-06-07T14:51:24.037Z,18.32
2018-06-07T14:53:53.226Z,17.15
2018-06-07T14:56:22.334Z,19.02
2018-06-07T14:58:51.469Z,19.07
2018-06-07T15:01:20.613Z,17.77
2018-06-07T15:03:49.805Z,18.92
2018-06-07T15:06:18.926Z,17.48
2018-06-07T15:08:48.088Z,18.60
2018-06-07T15:11:17.273Z,19.32
2018-06-07T15:13:47.036Z,17.70
2018-06-07T15:16:16.158Z,16.12
2018-06-07T15:18:45.266Z,17.45
2018-06-07T15:21:14.369Z,21.17
2018-06-07T15:23:43.497Z,21.33
2018-06-07T15:26:12.621Z,17.02
2018-06-07T15:28:41.739Z,16.65
2018-06-07T15:31:10.886Z,17.55
2018-06-07T15:33:40.031Z,20.65
2018-06-07T15:36:09.197Z,20.85
2018-06-07T15:38:38.336Z,20.05
2018-06-07T15:41:07.520Z,22.50
2018-06-07T15:43:36.614Z,23.95
2018-06-07T15:46:05.704Z,23.40
2018-06-07T15:48:34.831Z,26.95
2018-06-07T15:51:03.931Z,27.20
2018-06-07T15:53:33.100Z,28.10
2018-06-07T15:56:02.240Z,32.25
2018-06-07T15:58:31.368Z,27.27
2018-06-07T16:01:00.482Z,24.40
2018-06-07T16:03:29.582Z,25.43
2018-06-07T16:05:58.684Z,27.07
2018-06-07T16:08:27.890Z,28.25
2018-06-07T16:10:57.044Z,10.82
2018-06-07T16:13:26.164Z,7.03
2018-06-07T16:15:55.313Z,14.15
2018-06-07T16:18:24.501Z,7.20
2018-06-07T16:20:53.603Z,5.12
2018-06-07T16:23:22.694Z,8.08
2018-06-07T16:25:51.854Z,25.57
2018-06-07T16:28:20.972Z,28.98
2018-06-07T16:30:50.051Z,17.80
2018-06-07T16:33:19.175Z,111.53
2018-06-07T16:35:48.318Z,24.70
2018-06-07T16:38:17.492Z,35.87
2018-06-07T16:40:46.780Z,57.20
2018-06-07T16:43:15.934Z,30.50
2018-06-07T16:45:45.048Z,138.03
2018-06-07T16:48:14.209Z,34.57
2018-06-07T16:50:43.351Z,121.60
2018-06-07T16:53:12.517Z,81.23
2018-06-07T16:55:41.663Z,45.70
2018-06-07T16:58:10.795Z,52.70
2018-06-07T17:00:39.946Z,49.93
2018-06-07T17:03:09.065Z,49.50
2018-06-07T17:05:38.748Z,51.83
2018-06-07T17:08:07.901Z,36.83
2018-06-07T17:10:37.026Z,33.20
2018-06-07T17:13:06.199Z,36.67
2018-06-07T17:15:35.349Z,28.43
2018-06-07T17:18:05.759Z,36.10
2018-06-07T17:20:35.620Z,38.83
2018-06-07T17:23:04.803Z,35.13
2018-06-07T17:25:33.938Z,31.90
2018-06-07T17:28:03.112Z,37.00
2018-06-07T17:30:32.237Z,30.40
2018-06-07T17:33:01.440Z,34.33
2018-06-07T17:35:30.552Z,29.73
2018-06-07T17:38:00.246Z,24.13
2018-06-07T17:40:29.367Z,21.37
2018-06-07T17:42:58.554Z,21.13
2018-06-07T17:45:27.648Z,26.97
2018-06-07T17:47:56.906Z,26.83
2018-06-07T17:50:25.988Z,31.73
2018-06-07T17:52:55.145Z,32.77
2018-06-07T17:55:24.231Z,35.07
2018-06-07T17:57:53.403Z,31.17
2018-06-07T18:00:22.671Z,24.60
2018-06-07T18:02:51.833Z,24.77
2018-06-07T18:05:21.212Z,25.60
2018-06-07T18:07:50.372Z,21.77
2018-06-07T18:10:19.548Z,22.90
2018-06-07T18:12:49.045Z,23.03
2018-06-07T18:15:18.221Z,22.20
2018-06-07T18:17:47.374Z,23.47
2018-06-07T18:20:16.726Z,23.37
2018-06-07T18:22:46.047Z,26.30
2018-06-07T18:25:15.167Z,26.37
2018-06-07T18:27:44.290Z,26.83
2018-06-07T18:30:13.519Z,31.47
2018-06-07T18:32:42.633Z,32.70
2018-06-07T18:35:12.768Z,31.70
2018-06-07T18:37:41.901Z,36.17
2018-06-07T18:40:11.777Z,30.20
2018-06-07T18:42:40.901Z,29.73
2018-06-07T18:45:10.508Z,25.67
2018-06-07T18:47:40.147Z,31.30
2018-06-07T18:50:11.232Z,31.27
2018-06-07T18:52:41.069Z,33.27
2018-06-07T18:55:10.257Z,30.07
2018-06-07T18:57:39.398Z,28.30
2018-06-07T19:00:09.300Z,23.50
2018-06-07T19:02:38.484Z,31.20
2018-06-07T19:05:07.744Z,35.83
2018-06-07T19:07:36.915Z,23.37
2018-06-07T19:10:09.111Z,23.57
2018-06-07T19:12:38.261Z,23.90
2018-06-07T19:15:15.310Z,32.03
2018-06-07T19:17:44.408Z,24.90
2018-06-07T19:20:18.828Z,23.77
2018-06-07T19:22:47.962Z,27.33
2018-06-07T19:25:22.380Z,28.30
2018-06-07T19:27:51.475Z,26.93
2018-06-07T19:30:20.610Z,29.13
2018-06-07T19:32:55.091Z,30.13
2018-06-07T19:35:24.215Z,34.50
2018-06-07T19:37:53.360Z,34.63
2018-06-07T19:40:27.748Z,35.57
2018-06-07T19:42:56.899Z,37.50
2018-06-07T19:45:25.989Z,35.80
2018-06-07T19:47:55.123Z,36.97
2018-06-07T19:50:24.259Z,38.30
2018-06-07T19:52:53.388Z,35.33
2018-06-07T19:55:22.589Z,32.27
2018-06-07T19:57:51.711Z,34.97
2018-06-07T20:00:20.859Z,29.40
2018-06-07T20:02:50.020Z,25.30
2018-06-07T20:05:19.139Z,25.33
2018-06-07T20:07:48.228Z,24.33
2018-06-07T20:10:17.462Z,25.87
2018-06-07T20:12:46.562Z,24.70
2018-06-07T20:15:15.682Z,24.23
2018-06-07T20:17:44.823Z,24.23
2018-06-07T20:20:13.939Z,23.60
2018-06-07T20:22:43.042Z,25.93
2018-06-07T20:25:12.170Z,22.97
2018-06-07T20:27:41.315Z,24.47
2018-06-07T20:30:10.411Z,23.87
2018-06-07T20:32:39.734Z,25.27
2018-06-07T20:35:08.855Z,26.57
2018-06-07T20:37:38.041Z,30.17
2018-06-07T20:40:07.185Z,31.87
2018-06-07T20:42:36.431Z,33.40
2018-06-07T20:45:05.657Z,32.43
2018-06-07T20:47:34.792Z,33.17
2018-06-07T20:50:04.018Z,34.67
2018-06-07T20:52:33.116Z,33.77
2018-06-07T20:55:02.245Z,36.53
2018-06-07T20:57:31.383Z,36.30
2018-06-07T21:00:00.548Z,39.00
2018-06-07T21:02:29.697Z,35.87
2018-06-07T21:04:58.833Z,36.83
2018-06-07T21:07:29.096Z,31.33
2018-06-07T21:09:58.673Z,27.63
2018-06-07T21:12:28.513Z,26.00
2018-06-07T21:14:57.659Z,33.60
2018-06-07T21:17:26.756Z,32.83
2018-06-07T21:19:55.938Z,34.33
2018-06-07T21:22:25.094Z,35.43
2018-06-07T21:24:54.193Z,39.37
2018-06-07T21:27:23.309Z,43.33
2018-06-07T21:29:52.476Z,47.67
2018-06-07T21:32:21.599Z,49.53
2018-06-07T21:34:50.854Z,46.17
2018-06-07T21:37:19.969Z,42.93
2018-06-07T21:39:49.138Z,43.77
2018-06-07T21:42:18.265Z,45.73
2018-06-07T21:44:47.353Z,48.73
2018-06-07T21:47:16.513Z,51.63
2018-06-07T21:49:45.682Z,42.67
2018-06-07T21:52:14.809Z,47.13
2018-06-07T21:54:43.937Z,35.07
2018-06-07T21:57:13.069Z,35.23
2018-06-07T21:59:42.214Z,36.70
2018-06-07T22:02:11.333Z,43.77
2018-06-07T22:04:40.459Z,40.37
2018-06-07T22:07:09.579Z,41.80
2018-06-07T22:09:38.704Z,45.27
2018-06-07T22:12:07.803Z,44.10
2018-06-07T22:14:36.933Z,47.97
2018-06-07T22:17:06.789Z,47.10
2018-06-07T22:19:35.900Z,51.17
2018-06-07T22:22:05.242Z,53.13
2018-06-07T22:24:34.362Z,52.77
2018-06-07T22:27:04.090Z,56.13
2018-06-07T22:29:33.207Z,55.43
2018-06-07T22:32:02.395Z,58.60
2018-06-07T22:34:31.481Z,54.17
2018-06-07T22:37:00.644Z,58.00
2018-06-07T22:39:29.734Z,48.43
2018-06-07T22:41:58.857Z,54.23
2018-06-07T22:44:28.031Z,61.47
2018-06-07T22:46:57.129Z,65.57
2018-06-07T22:49:26.268Z,67.23
2018-06-07T22:51:55.378Z,60.23
2018-06-07T22:54:24.549Z,66.23
2018-06-07T22:56:53.668Z,59.17
2018-06-07T22:59:22.810Z,63.47
2018-06-07T23:01:51.929Z,65.87
2018-06-07T23:04:21.032Z,61.10
2018-06-07T23:06:50.154Z,61.53
2018-06-07T23:09:19.270Z,59.73
2018-06-07T23:11:48.416Z,64.57
2018-06-07T23:14:17.557Z,60.17
2018-06-07T23:16:46.703Z,57.60
2018-06-07T23:19:15.817Z,63.63
2018-06-07T23:21:45.064Z,61.57
2018-06-07T23:24:14.188Z,61.43
2018-06-07T23:26:43.256Z,62.27
2018-06-07T23:29:12.449Z,62.07
2018-06-07T23:31:41.545Z,60.73
2018-06-07T23:34:10.666Z,55.27
2018-06-07T23:36:39.839Z,59.63
2018-06-07T23:39:09.804Z,66.27
2018-06-07T23:41:38.928Z,60.10
2018-06-07T23:44:08.429Z,64.63
2018-06-07T23:46:37.524Z,67.83
2018-06-07T23:49:06.655Z,65.33
2018-06-07T23:51:35.755Z,62.03
2018-06-07T23:54:04.871Z,69.30
2018-06-07T23:56:34.037Z,69.73
2018-06-07T23:59:03.170Z,69.33
